Terminal Aerodrome Forecast
Issued by NWS Brownsville, TX

Home | Current Version | Previous Version | Text Only | Print | Product List | Glossary On
Versions: 1 2 3 4 5 6 7 8 9 10 11 12 13 14 15 16 17 18 19 20 21 22 23 24 25 26 27 28 29
000
FTUS44 KBRO 290534
TAFMFE
TAF
KMFE 290534Z 2906/3006 13010KT P6SM SCT020
     FM290900 13007KT 4SM BR BKN015
      TEMPO 2909/2912 BKN009
     FM291200 14008KT P6SM BKN018
     FM291800 14015G25KT P6SM SCT050
     FM300300 13010KT P6SM SCT050 BKN200=

USA.gov is the U.S. government's official web portal to all federal, state and local government web resources and services.